sensor_id;sensor_type;location;lat;lon;timestamp;pressure;altitude;pressure_sealevel;temperature;humidity
54308;BME280;40208;39.778;2.710;2023-05-07T00:01:34;100999.41;;;17.30;100.00
54308;BME280;40208;39.778;2.710;2023-05-07T00:04:22;101220.56;;;18.69;100.00
54308;BME280;40208;39.778;2.710;2023-05-07T00:07:09;100920.94;;;16.75;100.00
54308;BME280;40208;39.778;2.710;2023-05-07T00:09:55;101220.41;;;18.46;100.00
54308;BME280;40208;39.778;2.710;2023-05-07T00:12:41;100821.13;;;15.94;100.00
54308;BME280;40208;39.778;2.710;2023-05-07T00:15:28;100937.72;;;16.65;100.00
54308;BME280;40208;39.778;2.710;2023-05-07T00:18:16;101021.16;;;17.13;100.00
54308;BME280;40208;39.778;2.710;2023-05-07T00:21:13;101067.94;;;17.09;100.00
54308;BME280;40208;39.778;2.710;2023-05-07T00:24:01;101083.53;;;17.55;100.00
54308;BME280;40208;39.778;2.710;2023-05-07T00:26:49;101053.19;;;17.42;100.00
54308;BME280;40208;39.778;2.710;2023-05-07T00:29:34;101283.69;;;18.76;100.00
54308;BME280;40208;39.778;2.710;2023-05-07T00:32:24;101283.69;;;18.76;100.00
54308;BME280;40208;39.778;2.710;2023-05-07T00:35:14;101288.03;;;18.78;100.00
54308;BME280;40208;39.778;2.710;2023-05-07T00:38:03;101086.66;;;17.62;100.00
54308;BME280;40208;39.778;2.710;2023-05-07T00:40:49;100993.56;;;16.85;100.00
54308;BME280;40208;39.778;2.710;2023-05-07T00:43:36;101003.66;;;17.07;100.00
54308;BME280;40208;39.778;2.710;2023-05-07T00:46:21;101305.63;;;18.95;100.00
54308;BME280;40208;39.778;2.710;2023-05-07T00:49:18;100984.59;;;16.99;100.00
54308;BME280;40208;39.778;2.710;2023-05-07T00:52:03;101312.19;;;19.04;100.00
54308;BME280;40208;39.778;2.710;2023-05-07T00:54:51;101300.34;;;19.06;100.00
54308;BME280;40208;39.778;2.710;2023-05-07T00:57:37;101289.47;;;19.08;100.00
54308;BME280;40208;39.778;2.710;2023-05-07T01:00:24;101279.34;;;19.12;100.00
54308;BME280;40208;39.778;2.710;2023-05-07T01:03:09;101222.31;;;18.82;100.00
54308;BME280;40208;39.778;2.710;2023-05-07T01:05:56;101269.97;;;19.17;100.00
54308;BME280;40208;39.778;2.710;2023-05-07T01:08:43;101276.09;;;19.19;100.00
54308;BME280;40208;39.778;2.710;2023-05-07T01:11:31;101276.97;;;19.20;100.00
54308;BME280;40208;39.778;2.710;2023-05-07T01:14:16;101087.97;;;17.94;100.00
54308;BME280;40208;39.778;2.710;2023-05-07T01:17:02;101280.84;;;19.16;100.00
54308;BME280;40208;39.778;2.710;2023-05-07T01:19:47;101286.97;;;19.18;100.00
54308;BME280;40208;39.778;2.710;2023-05-07T01:22:35;101087.75;;;17.97;100.00
54308;BME280;40208;39.778;2.710;2023-05-07T01:25:22;101255.03;;;19.00;100.00
54308;BME280;40208;39.778;2.710;2023-05-07T01:28:12;101021.06;;;17.40;100.00
54308;BME280;40208;39.778;2.710;2023-05-07T01:31:02;101050.78;;;17.75;100.00
54308;BME280;40208;39.778;2.710;2023-05-07T01:33:53;101201.66;;;18.57;100.00
54308;BME280;40208;39.778;2.710;2023-05-07T01:36:48;101320.97;;;19.19;100.00
54308;BME280;40208;39.778;2.710;2023-05-07T01:39:37;101224.34;;;18.79;100.00
54308;BME280;40208;39.778;2.710;2023-05-07T01:42:24;101176.63;;;18.57;100.00
54308;BME280;40208;39.778;2.710;2023-05-07T01:45:11;100991.75;;;17.50;100.00
54308;BME280;40208;39.778;2.710;2023-05-07T01:48:02;101270.69;;;19.19;100.00
54308;BME280;40208;39.778;2.710;2023-05-07T01:50:49;101176.84;;;18.54;100.00
54308;BME280;40208;39.778;2.710;2023-05-07T01:53:39;100951.97;;;17.18;100.00
54308;BME280;40208;39.778;2.710;2023-05-07T01:56:30;101007.00;;;17.24;100.00
54308;BME280;40208;39.778;2.710;2023-05-07T01:59:16;101185.75;;;18.54;100.00
54308;BME280;40208;39.778;2.710;2023-05-07T02:02:01;101083.34;;;17.84;100.00
54308;BME280;40208;39.778;2.710;2023-05-07T02:04:48;101045.22;;;17.53;100.00
54308;BME280;40208;39.778;2.710;2023-05-07T02:07:37;101166.53;;;18.48;100.00
54308;BME280;40208;39.778;2.710;2023-05-07T02:10:24;101155.16;;;18.44;100.00
54308;BME280;40208;39.778;2.710;2023-05-07T02:13:10;100949.72;;;17.12;100.00
54308;BME280;40208;39.778;2.710;2023-05-07T02:16:07;100582.84;;;14.90;100.00
54308;BME280;40208;39.778;2.710;2023-05-07T02:18:54;101274.22;;;18.96;100.00
54308;BME280;40208;39.778;2.710;2023-05-07T02:21:44;101144.84;;;18.38;100.00
54308;BME280;40208;39.778;2.710;2023-05-07T02:24:33;100954.41;;;17.08;100.00
54308;BME280;40208;39.778;2.710;2023-05-07T02:27:17;101091.47;;;17.69;100.00
54308;BME280;40208;39.778;2.710;2023-05-07T02:30:09;101042.84;;;17.61;100.00
54308;BME280;40208;39.778;2.710;2023-05-07T02:32:57;101027.19;;;17.55;100.00
54308;BME280;40208;39.778;2.710;2023-05-07T02:35:43;101146.28;;;18.18;100.00
54308;BME280;40208;39.778;2.710;2023-05-07T02:38:33;101227.22;;;18.76;100.00
54308;BME280;40208;39.778;2.710;2023-05-07T02:41:19;101002.84;;;17.32;100.00
54308;BME280;40208;39.778;2.710;2023-05-07T02:44:09;100995.19;;;17.26;100.00
54308;BME280;40208;39.778;2.710;2023-05-07T02:46:57;101197.72;;;18.25;100.00
54308;BME280;40208;39.778;2.710;2023-05-07T02:49:45;101275.53;;;18.64;100.00
54308;BME280;40208;39.778;2.710;2023-05-07T02:52:30;101269.31;;;18.51;100.00
54308;BME280;40208;39.778;2.710;2023-05-07T02:55:15;101229.03;;;18.26;100.00
54308;BME280;40208;39.778;2.710;2023-05-07T02:58:00;101268.13;;;18.42;100.00
54308;BME280;40208;39.778;2.710;2023-05-07T03:00:48;100866.38;;;15.84;100.00
54308;BME280;40208;39.778;2.710;2023-05-07T03:03:35;101262.44;;;18.34;100.00
54308;BME280;40208;39.778;2.710;2023-05-07T03:06:20;101075.22;;;17.07;100.00
54308;BME280;40208;39.778;2.710;2023-05-07T03:09:06;101256.09;;;18.10;100.00
54308;BME280;40208;39.778;2.710;2023-05-07T03:11:51;101097.75;;;17.04;100.00
54308;BME280;40208;39.778;2.710;2023-05-07T03:14:37;101072.16;;;16.86;100.00
54308;BME280;40208;39.778;2.710;2023-05-07T03:17:23;101015.81;;;16.46;100.00
54308;BME280;40208;39.778;2.710;2023-05-07T03:20:08;101018.56;;;16.59;100.00
54308;BME280;40208;39.778;2.710;2023-05-07T03:23:03;101273.06;;;18.10;100.00
54308;BME280;40208;39.778;2.710;2023-05-07T03:25:48;101078.41;;;16.72;100.00
54308;BME280;40208;39.778;2.710;2023-05-07T03:28:34;100980.63;;;16.10;100.00
54308;BME280;40208;39.778;2.710;2023-05-07T03:31:19;101186.75;;;17.36;100.00
54308;BME280;40208;39.778;2.710;2023-05-07T03:34:07;101230.28;;;17.54;100.00
54308;BME280;40208;39.778;2.710;2023-05-07T03:36:53;101088.91;;;16.48;100.00
54308;BME280;40208;39.778;2.710;2023-05-07T03:39:47;101298.66;;;17.76;100.00
54308;BME280;40208;39.778;2.710;2023-05-07T03:42:32;101095.13;;;16.48;100.00
54308;BME280;40208;39.778;2.710;2023-05-07T03:45:26;101211.47;;;17.14;100.00
54308;BME280;40208;39.778;2.710;2023-05-07T03:48:13;101206.84;;;17.04;100.00
54308;BME280;40208;39.778;2.710;2023-05-07T03:50:59;100984.13;;;15.69;100.00
54308;BME280;40208;39.778;2.710;2023-05-07T03:53:51;101216.97;;;16.99;100.00
54308;BME280;40208;39.778;2.710;2023-05-07T03:56:40;101320.81;;;17.38;100.00
54308;BME280;40208;39.778;2.710;2023-05-07T03:59:26;101029.41;;;15.58;100.00
54308;BME280;40208;39.778;2.710;2023-05-07T04:02:11;101085.28;;;15.79;100.00
54308;BME280;40208;39.778;2.710;2023-05-07T04:05:01;101018.22;;;15.37;100.00
54308;BME280;40208;39.778;2.710;2023-05-07T04:07:48;101307.75;;;17.19;100.00
54308;BME280;40208;39.778;2.710;2023-05-07T04:10:43;101227.25;;;16.78;100.00
54308;BME280;40208;39.778;2.710;2023-05-07T04:13:33;101312.44;;;17.15;100.00
54308;BME280;40208;39.778;2.710;2023-05-07T04:16:18;101351.69;;;17.31;100.00
54308;BME280;40208;39.778;2.710;2023-05-07T04:19:05;101236.19;;;16.49;100.00
54308;BME280;40208;39.778;2.710;2023-05-07T04:21:53;101289.22;;;16.87;100.00
54308;BME280;40208;39.778;2.710;2023-05-07T04:24:38;100953.09;;;14.65;100.00
54308;BME280;40208;39.778;2.710;2023-05-07T04:27:26;101256.28;;;16.57;100.00
54308;BME280;40208;39.778;2.710;2023-05-07T04:30:13;101252.13;;;16.65;100.00
54308;BME280;40208;39.778;2.710;2023-05-07T04:32:59;101379.94;;;17.36;100.00
54308;BME280;40208;39.778;2.710;2023-05-07T04:35:48;101363.56;;;17.41;100.00
54308;BME280;40208;39.778;2.710;2023-05-07T04:38:39;101058.84;;;15.58;100.00
54308;BME280;40208;39.778;2.710;2023-05-07T04:41:24;101223.53;;;16.66;100.00
54308;BME280;40208;39.778;2.710;2023-05-07T04:44:12;101347.16;;;17.46;100.00
54308;BME280;40208;39.778;2.710;2023-05-07T04:46:57;101235.47;;;16.74;100.00
54308;BME280;40208;39.778;2.710;2023-05-07T04:49:47;100721.09;;;13.55;100.00
54308;BME280;40208;39.778;2.710;2023-05-07T04:52:39;101013.00;;;15.36;100.00
54308;BME280;40208;39.778;2.710;2023-05-07T04:55:27;101050.41;;;15.21;100.00
54308;BME280;40208;39.778;2.710;2023-05-07T04:58:16;101291.63;;;16.92;100.00
54308;BME280;40208;39.778;2.710;2023-05-07T05:01:02;101076.25;;;15.65;100.00
54308;BME280;40208;39.778;2.710;2023-05-07T05:03:47;101322.50;;;17.12;100.00
54308;BME280;40208;39.778;2.710;2023-05-07T05:06:34;101203.94;;;16.37;100.00
54308;BME280;40208;39.778;2.710;2023-05-07T05:09:22;101153.91;;;15.94;100.00
54308;BME280;40208;39.778;2.710;2023-05-07T05:12:15;101207.66;;;16.20;100.00
54308;BME280;40208;39.778;2.710;2023-05-07T05:15:00;101174.53;;;15.78;100.00
54308;BME280;40208;39.778;2.710;2023-05-07T05:17:46;101218.34;;;15.91;100.00
54308;BME280;40208;39.778;2.710;2023-05-07T05:20:33;101198.72;;;15.76;100.00
54308;BME280;40208;39.778;2.710;2023-05-07T05:23:20;101193.19;;;15.63;100.00
54308;BME280;40208;39.778;2.710;2023-05-07T05:26:06;101134.22;;;15.20;100.00
54308;BME280;40208;39.778;2.710;2023-05-07T05:28:54;101295.25;;;16.18;100.00
54308;BME280;40208;39.778;2.710;2023-05-07T05:31:39;101291.94;;;16.14;100.00
54308;BME280;40208;39.778;2.710;2023-05-07T05:34:32;101228.25;;;15.75;100.00
54308;BME280;40208;39.778;2.710;2023-05-07T05:37:19;101326.84;;;16.27;100.00
54308;BME280;40208;39.778;2.710;2023-05-07T05:40:08;101316.88;;;16.15;100.00
54308;BME280;40208;39.778;2.710;2023-05-07T05:42:55;101187.41;;;15.41;100.00
54308;BME280;40208;39.778;2.710;2023-05-07T05:45:40;101242.09;;;15.51;100.00
54308;BME280;40208;39.778;2.710;2023-05-07T05:48:26;101284.56;;;15.73;100.00
54308;BME280;40208;39.778;2.710;2023-05-07T05:51:11;101337.63;;;16.11;100.00
54308;BME280;40208;39.778;2.710;2023-05-07T05:53:58;101284.78;;;15.68;100.00
54308;BME280;40208;39.778;2.710;2023-05-07T05:56:43;101219.25;;;15.45;100.00
54308;BME280;40208;39.778;2.710;2023-05-07T05:59:28;101123.09;;;14.98;100.00
54308;BME280;40208;39.778;2.710;2023-05-07T06:02:14;101251.72;;;15.69;100.00
54308;BME280;40208;39.778;2.710;2023-05-07T06:05:00;101221.38;;;15.55;100.00
54308;BME280;40208;39.778;2.710;2023-05-07T06:07:49;101205.69;;;15.48;100.00
54308;BME280;40208;39.778;2.710;2023-05-07T06:10:37;101272.94;;;15.88;100.00
54308;BME280;40208;39.778;2.710;2023-05-07T06:13:23;101232.41;;;15.64;100.00
54308;BME280;40208;39.778;2.710;2023-05-07T06:16:10;101243.44;;;15.74;100.00
54308;BME280;40208;39.778;2.710;2023-05-07T06:18:58;101265.66;;;15.90;100.00
54308;BME280;40208;39.778;2.710;2023-05-07T06:21:43;101268.06;;;15.95;100.00
54308;BME280;40208;39.778;2.710;2023-05-07T06:24:28;101372.59;;;16.68;100.00
54308;BME280;40208;39.778;2.710;2023-05-07T06:27:14;101230.59;;;15.95;100.00
54308;BME280;40208;39.778;2.710;2023-05-07T06:30:03;101371.13;;;16.77;100.00
54308;BME280;40208;39.778;2.710;2023-05-07T06:32:52;101232.72;;;16.19;100.00
54308;BME280;40208;39.778;2.710;2023-05-07T06:35:46;101175.91;;;15.99;100.00
54308;BME280;40208;39.778;2.710;2023-05-07T06:38:30;101240.78;;;16.47;100.00
54308;BME280;40208;39.778;2.710;2023-05-07T06:41:22;101221.16;;;16.47;100.00
54308;BME280;40208;39.778;2.710;2023-05-07T06:44:15;101183.84;;;16.29;100.00
54308;BME280;40208;39.778;2.710;2023-05-07T06:47:02;101268.63;;;16.88;100.00
54308;BME280;40208;39.778;2.710;2023-05-07T06:49:50;101338.19;;;17.32;100.00
54308;BME280;40208;39.778;2.710;2023-05-07T06:52:43;101247.38;;;16.85;100.00
54308;BME280;40208;39.778;2.710;2023-05-07T06:55:27;101222.06;;;16.74;100.00
54308;BME280;40208;39.778;2.710;2023-05-07T06:58:12;101301.78;;;17.28;100.00
54308;BME280;40208;39.778;2.710;2023-05-07T07:00:59;101269.63;;;17.14;100.00
54308;BME280;40208;39.778;2.710;2023-05-07T07:03:45;101246.66;;;17.10;100.00
54308;BME280;40208;39.778;2.710;2023-05-07T07:06:32;101276.91;;;17.39;100.00
54308;BME280;40208;39.778;2.710;2023-05-07T07:09:22;101380.63;;;18.09;100.00
54308;BME280;40208;39.778;2.710;2023-05-07T07:12:09;101301.84;;;17.68;100.00
54308;BME280;40208;39.778;2.710;2023-05-07T07:14:57;101360.22;;;18.06;100.00
54308;BME280;40208;39.778;2.710;2023-05-07T07:17:49;101372.03;;;18.16;100.00
54308;BME280;40208;39.778;2.710;2023-05-07T07:20:40;101356.34;;;18.10;100.00
54308;BME280;40208;39.778;2.710;2023-05-07T07:23:27;101287.06;;;17.75;100.00
54308;BME280;40208;39.778;2.710;2023-05-07T07:26:14;101360.44;;;18.16;100.00
54308;BME280;40208;39.778;2.710;2023-05-07T07:28:59;101369.16;;;18.19;100.00
54308;BME280;40208;39.778;2.710;2023-05-07T07:31:50;101330.69;;;18.19;100.00
54308;BME280;40208;39.778;2.710;2023-05-07T07:34:40;101278.50;;;17.96;100.00
54308;BME280;40208;39.778;2.710;2023-05-07T07:37:28;101053.50;;;16.70;100.00
54308;BME280;40208;39.778;2.710;2023-05-07T07:40:18;101275.75;;;18.10;100.00
54308;BME280;40208;39.778;2.710;2023-05-07T07:43:03;101415.16;;;18.93;100.00
54308;BME280;40208;39.778;2.710;2023-05-07T07:45:55;101367.06;;;18.76;100.00
54308;BME280;40208;39.778;2.710;2023-05-07T07:48:40;101333.81;;;18.64;100.00
54308;BME280;40208;39.778;2.710;2023-05-07T07:51:25;100980.81;;;16.62;100.00
54308;BME280;40208;39.778;2.710;2023-05-07T07:54:11;101341.34;;;18.72;100.00
54308;BME280;40208;39.778;2.710;2023-05-07T07:56:58;101155.16;;;17.54;100.00
54308;BME280;40208;39.778;2.710;2023-05-07T07:59:43;101305.34;;;18.61;100.00
54308;BME280;40208;39.778;2.710;2023-05-07T08:02:32;101296.84;;;18.55;100.00
54308;BME280;40208;39.778;2.710;2023-05-07T08:05:21;101355.66;;;18.98;100.00
54308;BME280;40208;39.778;2.710;2023-05-07T08:08:11;101421.81;;;19.39;100.00
54308;BME280;40208;39.778;2.710;2023-05-07T08:10:57;101396.66;;;19.27;100.00
54308;BME280;40208;39.778;2.710;2023-05-07T08:13:47;101314.91;;;18.78;100.00
54308;BME280;40208;39.778;2.710;2023-05-07T08:16:44;101422.22;;;19.45;100.00
54308;BME280;40208;39.778;2.710;2023-05-07T08:19:32;101394.91;;;19.26;100.00
54308;BME280;40208;39.778;2.710;2023-05-07T08:22:20;101266.50;;;18.53;100.00
54308;BME280;40208;39.778;2.710;2023-05-07T08:25:12;101432.44;;;19.53;100.00
54308;BME280;40208;39.778;2.710;2023-05-07T08:27:59;101411.00;;;19.52;100.00
54308;BME280;40208;39.778;2.710;2023-05-07T08:30:51;101319.59;;;19.00;100.00
54308;BME280;40208;39.778;2.710;2023-05-07T08:33:39;101407.41;;;19.64;100.00
54308;BME280;40208;39.778;2.710;2023-05-07T08:36:26;101420.13;;;19.75;100.00
54308;BME280;40208;39.778;2.710;2023-05-07T08:39:17;101387.94;;;19.60;100.00
54308;BME280;40208;39.778;2.710;2023-05-07T08:42:05;101320.22;;;19.30;100.00
54308;BME280;40208;39.778;2.710;2023-05-07T08:45:04;101332.75;;;19.42;100.00
54308;BME280;40208;39.778;2.710;2023-05-07T08:48:02;101313.50;;;19.35;100.00
54308;BME280;40208;39.778;2.710;2023-05-07T08:50:52;101252.44;;;19.12;100.00
54308;BME280;40208;39.778;2.710;2023-05-07T08:53:46;101348.03;;;19.78;100.00
54308;BME280;40208;39.778;2.710;2023-05-07T08:56:34;101320.59;;;19.73;100.00
54308;BME280;40208;39.778;2.710;2023-05-07T08:59:22;101172.06;;;18.83;100.00
54308;BME280;40208;39.778;2.710;2023-05-07T09:02:12;101331.19;;;19.87;100.00
54308;BME280;40208;39.778;2.710;2023-05-07T09:05:03;101394.28;;;20.20;100.00
54308;BME280;40208;39.778;2.710;2023-05-07T09:07:54;101330.94;;;19.90;100.00
54308;BME280;40208;39.778;2.710;2023-05-07T09:10:42;101316.50;;;19.91;100.00
54308;BME280;40208;39.778;2.710;2023-05-07T09:13:31;101344.25;;;20.16;95.51
54308;BME280;40208;39.778;2.710;2023-05-07T09:16:26;101230.13;;;19.46;98.88
54308;BME280;40208;39.778;2.710;2023-05-07T09:19:11;101246.69;;;19.53;89.97
54308;BME280;40208;39.778;2.710;2023-05-07T09:22:04;101313.66;;;20.28;100.00
54308;BME280;40208;39.778;2.710;2023-05-07T09:24:54;101327.19;;;20.51;100.00
54308;BME280;40208;39.778;2.710;2023-05-07T09:27:43;101444.06;;;21.32;100.00
54308;BME280;40208;39.778;2.710;2023-05-07T09:30:32;101363.31;;;21.06;100.00
54308;BME280;40208;39.778;2.710;2023-05-07T09:33:20;101346.63;;;21.01;100.00
54308;BME280;40208;39.778;2.710;2023-05-07T09:36:09;101470.06;;;21.78;100.00
54308;BME280;40208;39.778;2.710;2023-05-07T09:38:55;101352.78;;;21.14;100.00
54308;BME280;40208;39.778;2.710;2023-05-07T09:41:45;101335.09;;;20.99;100.00
54308;BME280;40208;39.778;2.710;2023-05-07T09:44:43;101387.34;;;21.21;100.00
54308;BME280;40208;39.778;2.710;2023-05-07T09:47:32;101487.53;;;21.74;100.00
54308;BME280;40208;39.778;2.710;2023-05-07T09:50:29;101483.25;;;21.60;100.00
54308;BME280;40208;39.778;2.710;2023-05-07T09:53:23;101404.16;;;21.02;100.00
54308;BME280;40208;39.778;2.710;2023-05-07T09:56:16;101315.91;;;20.34;100.00
54308;BME280;40208;39.778;2.710;2023-05-07T09:59:13;101416.78;;;20.90;100.00
54308;BME280;40208;39.778;2.710;2023-05-07T10:02:04;101394.94;;;20.70;100.00
54308;BME280;40208;39.778;2.710;2023-05-07T10:04:58;101446.09;;;20.94;100.00
54308;BME280;40208;39.778;2.710;2023-05-07T10:07:53;101510.31;;;21.25;100.00
54308;BME280;40208;39.778;2.710;2023-05-07T10:10:40;101515.13;;;21.32;100.00
54308;BME280;40208;39.778;2.710;2023-05-07T10:13:26;101458.84;;;20.92;100.00
54308;BME280;40208;39.778;2.710;2023-05-07T10:16:12;101529.00;;;21.39;100.00
54308;BME280;40208;39.778;2.710;2023-05-07T10:18:59;101449.03;;;20.80;100.00
54308;BME280;40208;39.778;2.710;2023-05-07T10:21:54;101232.56;;;19.49;100.00
54308;BME280;40208;39.778;2.710;2023-05-07T10:24:48;101425.81;;;20.66;100.00
54308;BME280;40208;39.778;2.710;2023-05-07T10:27:39;101417.38;;;20.71;100.00
54308;BME280;40208;39.778;2.710;2023-05-07T10:30:37;101522.84;;;21.37;100.00
54308;BME280;40208;39.778;2.710;2023-05-07T10:33:34;101460.63;;;21.05;100.00
54308;BME280;40208;39.778;2.710;2023-05-07T10:36:23;101443.56;;;20.93;100.00
54308;BME280;40208;39.778;2.710;2023-05-07T10:39:09;101482.22;;;21.27;100.00
54308;BME280;40208;39.778;2.710;2023-05-07T10:42:13;101493.81;;;21.41;100.00
54308;BME280;40208;39.778;2.710;2023-05-07T10:45:11;101389.06;;;20.77;100.00
54308;BME280;40208;39.778;2.710;2023-05-07T10:48:13;101493.19;;;21.48;100.00
54308;BME280;40208;39.778;2.710;2023-05-07T10:51:18;101514.56;;;21.63;100.00
54308;BME280;40208;39.778;2.710;2023-05-07T10:57:36;101510.50;;;21.68;100.00
54308;BME280;40208;39.778;2.710;2023-05-07T11:03:26;101369.47;;;20.86;100.00
54308;BME280;40208;39.778;2.710;2023-05-07T11:06:28;101422.34;;;21.22;100.00
54308;BME280;40208;39.778;2.710;2023-05-07T11:09:23;101399.50;;;21.15;100.00
54308;BME280;40208;39.778;2.710;2023-05-07T11:15:46;101516.84;;;22.01;100.00
54308;BME280;40208;39.778;2.710;2023-05-07T11:18:54;101451.56;;;21.62;100.00
54308;BME280;40208;39.778;2.710;2023-05-07T11:21:42;101330.94;;;20.84;100.00
54308;BME280;40208;39.778;2.710;2023-05-07T11:24:42;101391.66;;;21.34;100.00
54308;BME280;40208;39.778;2.710;2023-05-07T11:27:34;101394.59;;;21.43;100.00
54308;BME280;40208;39.778;2.710;2023-05-07T11:30:21;101503.91;;;22.16;100.00
54308;BME280;40208;39.778;2.710;2023-05-07T11:33:17;101454.09;;;21.86;100.00
54308;BME280;40208;39.778;2.710;2023-05-07T11:36:05;101448.81;;;21.85;100.00
54308;BME280;40208;39.778;2.710;2023-05-07T11:38:54;101434.44;;;21.84;100.00
54308;BME280;40208;39.778;2.710;2023-05-07T11:41:46;101445.34;;;21.94;100.00
54308;BME280;40208;39.778;2.710;2023-05-07T11:44:46;101424.28;;;21.76;100.00
54308;BME280;40208;39.778;2.710;2023-05-07T11:47:33;101439.59;;;21.87;100.00
54308;BME280;40208;39.778;2.710;2023-05-07T11:50:21;101510.06;;;22.29;100.00
54308;BME280;40208;39.778;2.710;2023-05-07T11:53:10;101434.91;;;21.89;100.00
54308;BME280;40208;39.778;2.710;2023-05-07T11:56:13;101423.00;;;21.80;100.00
54308;BME280;40208;39.778;2.710;2023-05-07T11:59:09;101499.34;;;22.28;100.00
54308;BME280;40208;39.778;2.710;2023-05-07T12:01:59;101528.06;;;22.40;100.00
54308;BME280;40208;39.778;2.710;2023-05-07T12:04:48;101381.94;;;21.54;100.00
54308;BME280;40208;39.778;2.710;2023-05-07T12:07:40;101457.91;;;21.95;100.00
54308;BME280;40208;39.778;2.710;2023-05-07T12:10:29;101500.84;;;22.20;100.00
54308;BME280;40208;39.778;2.710;2023-05-07T12:13:23;101491.13;;;22.18;100.00
54308;BME280;40208;39.778;2.710;2023-05-07T12:16:13;101441.81;;;21.82;100.00
54308;BME280;40208;39.778;2.710;2023-05-07T12:18:59;101199.50;;;20.29;100.00
54308;BME280;40208;39.778;2.710;2023-05-07T12:21:51;101406.03;;;21.46;100.00
54308;BME280;40208;39.778;2.710;2023-05-07T12:24:48;101444.53;;;21.71;100.00
54308;BME280;40208;39.778;2.710;2023-05-07T12:27:40;101423.56;;;21.52;100.00
54308;BME280;40208;39.778;2.710;2023-05-07T12:30:25;101395.44;;;21.32;100.00
54308;BME280;40208;39.778;2.710;2023-05-07T12:33:10;101313.75;;;20.73;100.00
54308;BME280;40208;39.778;2.710;2023-05-07T12:36:06;101135.34;;;19.65;100.00
54308;BME280;40208;39.778;2.710;2023-05-07T12:38:57;101208.03;;;20.01;100.00
54308;BME280;40208;39.778;2.710;2023-05-07T12:41:56;101324.66;;;20.61;100.00
54308;BME280;40208;39.778;2.710;2023-05-07T12:44:45;101528.59;;;22.11;100.00
54308;BME280;40208;39.778;2.710;2023-05-07T12:47:36;101173.47;;;19.95;100.00
54308;BME280;40208;39.778;2.710;2023-05-07T12:50:31;101193.47;;;20.03;100.00
54308;BME280;40208;39.778;2.710;2023-05-07T12:53:28;101460.91;;;21.58;100.00
54308;BME280;40208;39.778;2.710;2023-05-07T12:56:15;101492.84;;;21.64;100.00
54308;BME280;40208;39.778;2.710;2023-05-07T12:59:07;101496.13;;;21.79;100.00
54308;BME280;40208;39.778;2.710;2023-05-07T13:01:54;101483.34;;;21.70;100.00
54308;BME280;40208;39.778;2.710;2023-05-07T13:04:41;101414.72;;;21.16;100.00
54308;BME280;40208;39.778;2.710;2023-05-07T13:07:27;101337.78;;;20.65;100.00
54308;BME280;40208;39.778;2.710;2023-05-07T13:10:21;101481.16;;;21.52;100.00
54308;BME280;40208;39.778;2.710;2023-05-07T13:13:11;101481.41;;;21.49;100.00
54308;BME280;40208;39.778;2.710;2023-05-07T13:15:58;101378.63;;;20.94;100.00
54308;BME280;40208;39.778;2.710;2023-05-07T13:18:45;101407.97;;;21.10;100.00
54308;BME280;40208;39.778;2.710;2023-05-07T13:21:34;101351.78;;;20.70;100.00
54308;BME280;40208;39.778;2.710;2023-05-07T13:24:25;101322.56;;;20.53;100.00
54308;BME280;40208;39.778;2.710;2023-05-07T13:27:14;101409.06;;;20.96;100.00
54308;BME280;40208;39.778;2.710;2023-05-07T13:30:13;101337.00;;;20.52;100.00
54308;BME280;40208;39.778;2.710;2023-05-07T13:33:00;101533.69;;;21.71;100.00
54308;BME280;40208;39.778;2.710;2023-05-07T13:35:59;101419.03;;;21.07;100.00
54308;BME280;40208;39.778;2.710;2023-05-07T13:38:50;101406.75;;;21.14;100.00
54308;BME280;40208;39.778;2.710;2023-05-07T13:41:35;101386.00;;;21.15;100.00
54308;BME280;40208;39.778;2.710;2023-05-07T13:44:27;101426.50;;;21.37;100.00
54308;BME280;40208;39.778;2.710;2023-05-07T13:47:12;101527.28;;;22.06;100.00
54308;BME280;40208;39.778;2.710;2023-05-07T13:50:08;101549.91;;;22.05;100.00
54308;BME280;40208;39.778;2.710;2023-05-07T13:53:01;101320.16;;;20.84;100.00
54308;BME280;40208;39.778;2.710;2023-05-07T13:55:53;101390.69;;;21.24;100.00
54308;BME280;40208;39.778;2.710;2023-05-07T13:58:44;101523.72;;;22.16;100.00
54308;BME280;40208;39.778;2.710;2023-05-07T14:01:29;101286.31;;;20.80;100.00
54308;BME280;40208;39.778;2.710;2023-05-07T14:04:28;101224.72;;;20.40;100.00
54308;BME280;40208;39.778;2.710;2023-05-07T14:07:12;101172.00;;;20.02;100.00
54308;BME280;40208;39.778;2.710;2023-05-07T14:09:59;101547.56;;;22.22;100.00
54308;BME280;40208;39.778;2.710;2023-05-07T14:12:49;101436.19;;;21.74;100.00
54308;BME280;40208;39.778;2.710;2023-05-07T14:15:42;101411.91;;;21.51;100.00
54308;BME280;40208;39.778;2.710;2023-05-07T14:18:41;101510.91;;;22.18;100.00
54308;BME280;40208;39.778;2.710;2023-05-07T14:21:29;101311.19;;;21.06;100.00
54308;BME280;40208;39.778;2.710;2023-05-07T14:24:52;101503.78;;;22.29;100.00
54308;BME280;40208;39.778;2.710;2023-05-07T14:27:45;101410.50;;;21.79;100.00
54308;BME280;40208;39.778;2.710;2023-05-07T14:30:32;101464.34;;;22.15;100.00
54308;BME280;40208;39.778;2.710;2023-05-07T14:33:29;101509.50;;;22.47;100.00
54308;BME280;40208;39.778;2.710;2023-05-07T14:36:49;101486.19;;;22.34;100.00
54308;BME280;40208;39.778;2.710;2023-05-07T14:39:48;101516.31;;;22.62;100.00
54308;BME280;40208;39.778;2.710;2023-05-07T14:42:37;101306.84;;;21.26;100.00
54308;BME280;40208;39.778;2.710;2023-05-07T14:45:30;101510.91;;;22.62;100.00